sensor_id;sensor_type;location;lat;lon;timestamp;temperature;humidity
51765;DHT22;37835;53.256;6.456;2023-02-28T00:01:12;3.90;99.90
51765;DHT22;37835;53.256;6.456;2023-02-28T00:03:37;4.50;99.90
51765;DHT22;37835;53.256;6.456;2023-02-28T00:06:04;3.90;99.90
51765;DHT22;37835;53.256;6.456;2023-02-28T00:08:30;3.90;99.90
51765;DHT22;37835;53.256;6.456;2023-02-28T00:10:56;3.90;99.90
51765;DHT22;37835;53.256;6.456;2023-02-28T00:13:25;3.90;99.90
51765;DHT22;37835;53.256;6.456;2023-02-28T00:16:05;4.00;99.90
51765;DHT22;37835;53.256;6.456;2023-02-28T00:18:32;3.90;99.90
51765;DHT22;37835;53.256;6.456;2023-02-28T00:20:58;4.00;99.90
51765;DHT22;37835;53.256;6.456;2023-02-28T00:23:24;3.90;99.90
51765;DHT22;37835;53.256;6.456;2023-02-28T00:25:50;4.00;99.90
51765;DHT22;37835;53.256;6.456;2023-02-28T00:28:16;4.00;99.90
51765;DHT22;37835;53.256;6.456;2023-02-28T00:30:42;3.90;99.90
51765;DHT22;37835;53.256;6.456;2023-02-28T00:33:08;4.00;99.90
51765;DHT22;37835;53.256;6.456;2023-02-28T00:35:33;3.90;99.90
51765;DHT22;37835;53.256;6.456;2023-02-28T00:37:59;3.90;99.90
51765;DHT22;37835;53.256;6.456;2023-02-28T00:40:24;3.90;99.90
51765;DHT22;37835;53.256;6.456;2023-02-28T00:42:50;3.90;99.90
51765;DHT22;37835;53.256;6.456;2023-02-28T00:45:15;3.90;99.90
51765;DHT22;37835;53.256;6.456;2023-02-28T00:47:41;3.90;99.90
51765;DHT22;37835;53.256;6.456;2023-02-28T00:50:07;3.90;99.90
51765;DHT22;37835;53.256;6.456;2023-02-28T00:52:34;3.90;99.90
51765;DHT22;37835;53.256;6.456;2023-02-28T00:54:59;3.90;99.90
51765;DHT22;37835;53.256;6.456;2023-02-28T00:57:25;3.90;99.90
51765;DHT22;37835;53.256;6.456;2023-02-28T00:59:51;3.30;99.90
51765;DHT22;37835;53.256;6.456;2023-02-28T01:02:20;3.90;99.90
51765;DHT22;37835;53.256;6.456;2023-02-28T01:04:46;3.80;99.90
51765;DHT22;37835;53.256;6.456;2023-02-28T01:07:12;3.80;99.90
51765;DHT22;37835;53.256;6.456;2023-02-28T01:09:37;3.80;99.90
51765;DHT22;37835;53.256;6.456;2023-02-28T01:12:03;3.80;99.90
51765;DHT22;37835;53.256;6.456;2023-02-28T01:14:29;3.80;99.90
51765;DHT22;37835;53.256;6.456;2023-02-28T01:16:54;3.80;99.90
51765;DHT22;37835;53.256;6.456;2023-02-28T01:19:20;3.90;99.90
51765;DHT22;37835;53.256;6.456;2023-02-28T01:21:45;3.80;99.90
51765;DHT22;37835;53.256;6.456;2023-02-28T01:24:11;3.80;99.90
51765;DHT22;37835;53.256;6.456;2023-02-28T01:26:36;3.70;99.90
51765;DHT22;37835;53.256;6.456;2023-02-28T01:29:02;3.70;99.90
51765;DHT22;37835;53.256;6.456;2023-02-28T01:31:28;3.70;99.90
51765;DHT22;37835;53.256;6.456;2023-02-28T01:36:29;3.70;99.90
51765;DHT22;37835;53.256;6.456;2023-02-28T01:38:54;3.70;99.90
51765;DHT22;37835;53.256;6.456;2023-02-28T01:41:23;3.70;99.90
51765;DHT22;37835;53.256;6.456;2023-02-28T01:46:15;3.70;99.90
51765;DHT22;37835;53.256;6.456;2023-02-28T01:49:00;3.80;99.90
51765;DHT22;37835;53.256;6.456;2023-02-28T01:51:41;3.80;99.90
51765;DHT22;37835;53.256;6.456;2023-02-28T01:54:14;3.80;99.90
51765;DHT22;37835;53.256;6.456;2023-02-28T01:56:45;3.80;99.90
51765;DHT22;37835;53.256;6.456;2023-02-28T01:59:14;3.80;99.90
51765;DHT22;37835;53.256;6.456;2023-02-28T02:01:42;3.80;99.90
51765;DHT22;37835;53.256;6.456;2023-02-28T02:04:08;3.80;99.90
51765;DHT22;37835;53.256;6.456;2023-02-28T02:06:44;3.80;99.90
51765;DHT22;37835;53.256;6.456;2023-02-28T02:09:11;3.80;99.90
51765;DHT22;37835;53.256;6.456;2023-02-28T02:11:39;3.80;99.90
51765;DHT22;37835;53.256;6.456;2023-02-28T02:14:31;3.60;99.90
51765;DHT22;37835;53.256;6.456;2023-02-28T02:19:44;3.80;99.90
51765;DHT22;37835;53.256;6.456;2023-02-28T02:25:33;3.80;99.90
51765;DHT22;37835;53.256;6.456;2023-02-28T02:28:28;3.80;99.90
51765;DHT22;37835;53.256;6.456;2023-02-28T02:34:23;3.80;99.90
51765;DHT22;37835;53.256;6.456;2023-02-28T02:36:58;3.80;99.90
51765;DHT22;37835;53.256;6.456;2023-02-28T02:39:37;3.80;99.90
51765;DHT22;37835;53.256;6.456;2023-02-28T02:42:14;3.80;99.90
51765;DHT22;37835;53.256;6.456;2023-02-28T02:44:46;3.80;99.90
51765;DHT22;37835;53.256;6.456;2023-02-28T02:47:17;3.80;99.90
51765;DHT22;37835;53.256;6.456;2023-02-28T02:49:51;3.80;99.90
51765;DHT22;37835;53.256;6.456;2023-02-28T02:52:22;3.80;99.90
51765;DHT22;37835;53.256;6.456;2023-02-28T02:54:50;4.10;99.90
51765;DHT22;37835;53.256;6.456;2023-02-28T02:57:24;3.80;99.90
51765;DHT22;37835;53.256;6.456;2023-02-28T02:59:53;3.90;99.90
51765;DHT22;37835;53.256;6.456;2023-02-28T03:02:21;3.90;99.90
51765;DHT22;37835;53.256;6.456;2023-02-28T03:04:52;3.90;99.90
51765;DHT22;37835;53.256;6.456;2023-02-28T03:07:17;3.90;99.90
51765;DHT22;37835;53.256;6.456;2023-02-28T03:09:54;3.90;99.90
51765;DHT22;37835;53.256;6.456;2023-02-28T03:12:20;4.00;99.90
51765;DHT22;37835;53.256;6.456;2023-02-28T03:15:17;4.00;99.90
51765;DHT22;37835;53.256;6.456;2023-02-28T03:26:05;4.00;99.90
51765;DHT22;37835;53.256;6.456;2023-02-28T03:31:11;4.10;99.90
51765;DHT22;37835;53.256;6.456;2023-02-28T03:33:45;4.10;99.90
51765;DHT22;37835;53.256;6.456;2023-02-28T03:39:30;4.10;99.90
51765;DHT22;37835;53.256;6.456;2023-02-28T03:42:02;4.10;99.90
51765;DHT22;37835;53.256;6.456;2023-02-28T03:44:38;4.20;99.90
51765;DHT22;37835;53.256;6.456;2023-02-28T03:47:21;4.20;99.90
51765;DHT22;37835;53.256;6.456;2023-02-28T03:49:56;4.20;99.90
51765;DHT22;37835;53.256;6.456;2023-02-28T03:52:27;4.20;99.90
51765;DHT22;37835;53.256;6.456;2023-02-28T03:54:56;4.20;99.90
51765;DHT22;37835;53.256;6.456;2023-02-28T04:00:21;4.30;99.90
51765;DHT22;37835;53.256;6.456;2023-02-28T04:02:50;4.30;99.90
51765;DHT22;37835;53.256;6.456;2023-02-28T04:05:53;4.30;99.90
51765;DHT22;37835;53.256;6.456;2023-02-28T04:08:19;4.30;99.90
51765;DHT22;37835;53.256;6.456;2023-02-28T04:10:50;4.30;99.90
51765;DHT22;37835;53.256;6.456;2023-02-28T04:13:18;4.30;99.90
51765;DHT22;37835;53.256;6.456;2023-02-28T04:15:44;4.30;99.90
51765;DHT22;37835;53.256;6.456;2023-02-28T04:18:09;4.30;99.90
51765;DHT22;37835;53.256;6.456;2023-02-28T04:20:36;4.40;99.90
51765;DHT22;37835;53.256;6.456;2023-02-28T04:23:01;4.20;99.90
51765;DHT22;37835;53.256;6.456;2023-02-28T04:25:27;4.20;99.90
51765;DHT22;37835;53.256;6.456;2023-02-28T04:27:52;4.10;99.90
51765;DHT22;37835;53.256;6.456;2023-02-28T04:30:18;4.10;99.90
51765;DHT22;37835;53.256;6.456;2023-02-28T04:32:43;4.00;99.90
51765;DHT22;37835;53.256;6.456;2023-02-28T04:35:09;4.00;99.90
51765;DHT22;37835;53.256;6.456;2023-02-28T04:37:34;3.90;99.90
51765;DHT22;37835;53.256;6.456;2023-02-28T04:40:02;3.90;99.90
51765;DHT22;37835;53.256;6.456;2023-02-28T04:42:28;3.90;99.90
51765;DHT22;37835;53.256;6.456;2023-02-28T04:45:01;3.90;99.90
51765;DHT22;37835;53.256;6.456;2023-02-28T04:47:27;3.80;99.90
51765;DHT22;37835;53.256;6.456;2023-02-28T04:49:53;3.80;99.90
51765;DHT22;37835;53.256;6.456;2023-02-28T04:52:18;3.80;99.90
51765;DHT22;37835;53.256;6.456;2023-02-28T04:54:45;3.80;99.90
51765;DHT22;37835;53.256;6.456;2023-02-28T04:57:10;3.80;99.90
51765;DHT22;37835;53.256;6.456;2023-02-28T04:59:36;3.70;99.90
51765;DHT22;37835;53.256;6.456;2023-02-28T05:02:01;3.70;99.90
51765;DHT22;37835;53.256;6.456;2023-02-28T05:04:35;3.80;99.90
51765;DHT22;37835;53.256;6.456;2023-02-28T05:07:01;3.60;99.90
51765;DHT22;37835;53.256;6.456;2023-02-28T05:09:27;3.60;99.90
51765;DHT22;37835;53.256;6.456;2023-02-28T05:11:54;3.60;99.90
51765;DHT22;37835;53.256;6.456;2023-02-28T05:14:19;3.70;99.90
51765;DHT22;37835;53.256;6.456;2023-02-28T05:16:45;3.60;99.90
51765;DHT22;37835;53.256;6.456;2023-02-28T05:19:11;3.60;99.90
51765;DHT22;37835;53.256;6.456;2023-02-28T05:21:56;3.50;99.90
51765;DHT22;37835;53.256;6.456;2023-02-28T05:24:22;3.50;99.90
51765;DHT22;37835;53.256;6.456;2023-02-28T05:26:50;3.50;99.90
51765;DHT22;37835;53.256;6.456;2023-02-28T05:29:17;3.50;99.90
51765;DHT22;37835;53.256;6.456;2023-02-28T05:31:42;3.40;99.90
51765;DHT22;37835;53.256;6.456;2023-02-28T05:34:08;3.30;99.90
51765;DHT22;37835;53.256;6.456;2023-02-28T05:36:37;3.30;99.90
51765;DHT22;37835;53.256;6.456;2023-02-28T05:39:04;3.30;99.90
51765;DHT22;37835;53.256;6.456;2023-02-28T05:41:30;3.20;99.90
51765;DHT22;37835;53.256;6.456;2023-02-28T05:43:57;3.20;99.90
51765;DHT22;37835;53.256;6.456;2023-02-28T05:46:23;3.20;99.90
51765;DHT22;37835;53.256;6.456;2023-02-28T05:48:48;3.10;99.90
51765;DHT22;37835;53.256;6.456;2023-02-28T05:51:14;3.10;99.90
51765;DHT22;37835;53.256;6.456;2023-02-28T05:53:40;3.00;99.90
51765;DHT22;37835;53.256;6.456;2023-02-28T05:56:06;3.00;99.90
51765;DHT22;37835;53.256;6.456;2023-02-28T05:58:31;3.00;99.90
51765;DHT22;37835;53.256;6.456;2023-02-28T06:00:58;3.00;99.90
51765;DHT22;37835;53.256;6.456;2023-02-28T06:03:24;3.00;99.90
51765;DHT22;37835;53.256;6.456;2023-02-28T06:05:50;2.90;99.90
51765;DHT22;37835;53.256;6.456;2023-02-28T06:08:16;2.90;99.90
51765;DHT22;37835;53.256;6.456;2023-02-28T06:10:41;2.90;99.90
51765;DHT22;37835;53.256;6.456;2023-02-28T06:13:07;2.90;99.90
51765;DHT22;37835;53.256;6.456;2023-02-28T06:15:33;2.90;99.90
51765;DHT22;37835;53.256;6.456;2023-02-28T06:17:59;2.90;99.90
51765;DHT22;37835;53.256;6.456;2023-02-28T06:20:27;2.90;99.90
51765;DHT22;37835;53.256;6.456;2023-02-28T06:22:56;2.80;99.90
51765;DHT22;37835;53.256;6.456;2023-02-28T06:25:24;2.80;99.90
51765;DHT22;37835;53.256;6.456;2023-02-28T06:27:49;2.80;99.90
51765;DHT22;37835;53.256;6.456;2023-02-28T06:30:15;2.80;99.90
51765;DHT22;37835;53.256;6.456;2023-02-28T06:32:41;2.80;99.90
51765;DHT22;37835;53.256;6.456;2023-02-28T06:35:07;2.80;99.90
51765;DHT22;37835;53.256;6.456;2023-02-28T06:37:32;2.80;99.90
51765;DHT22;37835;53.256;6.456;2023-02-28T06:39:58;2.80;99.90
51765;DHT22;37835;53.256;6.456;2023-02-28T06:42:24;1.00;99.90
51765;DHT22;37835;53.256;6.456;2023-02-28T06:44:54;2.90;99.90
51765;DHT22;37835;53.256;6.456;2023-02-28T06:47:20;2.70;99.90
51765;DHT22;37835;53.256;6.456;2023-02-28T06:49:45;2.70;99.90
51765;DHT22;37835;53.256;6.456;2023-02-28T06:52:11;2.70;99.90
51765;DHT22;37835;53.256;6.456;2023-02-28T06:54:37;2.70;99.90
51765;DHT22;37835;53.256;6.456;2023-02-28T06:57:03;2.70;99.90
51765;DHT22;37835;53.256;6.456;2023-02-28T06:59:28;2.70;99.90
51765;DHT22;37835;53.256;6.456;2023-02-28T07:01:54;2.70;99.90
51765;DHT22;37835;53.256;6.456;2023-02-28T07:04:21;2.70;99.90
51765;DHT22;37835;53.256;6.456;2023-02-28T07:09:12;2.70;99.90
51765;DHT22;37835;53.256;6.456;2023-02-28T07:11:39;2.70;99.90
51765;DHT22;37835;53.256;6.456;2023-02-28T07:14:06;2.70;99.90
51765;DHT22;37835;53.256;6.456;2023-02-28T07:16:32;2.70;99.90
51765;DHT22;37835;53.256;6.456;2023-02-28T07:18:58;2.70;99.90
51765;DHT22;37835;53.256;6.456;2023-02-28T07:21:23;2.70;99.90
51765;DHT22;37835;53.256;6.456;2023-02-28T07:23:49;2.70;99.90
51765;DHT22;37835;53.256;6.456;2023-02-28T07:26:16;2.60;99.90
51765;DHT22;37835;53.256;6.456;2023-02-28T07:28:43;2.60;99.90
51765;DHT22;37835;53.256;6.456;2023-02-28T07:31:09;1.80;99.90
51765;DHT22;37835;53.256;6.456;2023-02-28T07:33:35;2.50;99.90
51765;DHT22;37835;53.256;6.456;2023-02-28T07:36:13;2.50;99.90
51765;DHT22;37835;53.256;6.456;2023-02-28T07:38:41;3.90;99.90
51765;DHT22;37835;53.256;6.456;2023-02-28T07:41:07;2.50;99.90
51765;DHT22;37835;53.256;6.456;2023-02-28T07:43:33;2.50;99.90
51765;DHT22;37835;53.256;6.456;2023-02-28T07:46:08;2.50;99.90
51765;DHT22;37835;53.256;6.456;2023-02-28T07:48:34;2.50;99.90
51765;DHT22;37835;53.256;6.456;2023-02-28T07:51:00;2.50;99.90
51765;DHT22;37835;53.256;6.456;2023-02-28T07:53:27;2.00;99.90
51765;DHT22;37835;53.256;6.456;2023-02-28T07:55:56;2.50;99.90
51765;DHT22;37835;53.256;6.456;2023-02-28T07:58:23;2.50;99.90
51765;DHT22;37835;53.256;6.456;2023-02-28T08:00:49;2.50;99.90
51765;DHT22;37835;53.256;6.456;2023-02-28T08:03:17;2.50;99.90
51765;DHT22;37835;53.256;6.456;2023-02-28T08:05:43;2.50;99.90
51765;DHT22;37835;53.256;6.456;2023-02-28T08:08:09;3.20;99.90
51765;DHT22;37835;53.256;6.456;2023-02-28T08:10:34;2.50;99.90
51765;DHT22;37835;53.256;6.456;2023-02-28T08:13:00;2.60;99.90
51765;DHT22;37835;53.256;6.456;2023-02-28T08:15:26;2.60;99.90
51765;DHT22;37835;53.256;6.456;2023-02-28T08:17:52;2.60;99.90
51765;DHT22;37835;53.256;6.456;2023-02-28T08:20:17;2.60;99.90
51765;DHT22;37835;53.256;6.456;2023-02-28T08:22:43;2.60;99.90
51765;DHT22;37835;53.256;6.456;2023-02-28T08:25:09;2.90;99.90
51765;DHT22;37835;53.256;6.456;2023-02-28T08:27:35;2.70;99.90
51765;DHT22;37835;53.256;6.456;2023-02-28T08:30:00;2.70;99.90
51765;DHT22;37835;53.256;6.456;2023-02-28T08:32:26;2.80;99.90
51765;DHT22;37835;53.256;6.456;2023-02-28T08:34:51;2.80;99.90
51765;DHT22;37835;53.256;6.456;2023-02-28T08:37:17;2.90;99.90
51765;DHT22;37835;53.256;6.456;2023-02-28T08:39:43;2.90;99.90
51765;DHT22;37835;53.256;6.456;2023-02-28T08:42:08;3.00;99.90
51765;DHT22;37835;53.256;6.456;2023-02-28T08:44:34;3.00;99.90
51765;DHT22;37835;53.256;6.456;2023-02-28T08:46:59;3.00;99.90
51765;DHT22;37835;53.256;6.456;2023-02-28T08:49:25;3.10;99.90
51765;DHT22;37835;53.256;6.456;2023-02-28T08:51:51;3.10;99.90
51765;DHT22;37835;53.256;6.456;2023-02-28T08:54:16;3.10;99.90
51765;DHT22;37835;53.256;6.456;2023-02-28T08:56:45;3.20;99.90
51765;DHT22;37835;53.256;6.456;2023-02-28T08:59:11;3.20;99.90
51765;DHT22;37835;53.256;6.456;2023-02-28T09:01:37;3.30;99.90
51765;DHT22;37835;53.256;6.456;2023-02-28T09:04:02;3.30;99.90
51765;DHT22;37835;53.256;6.456;2023-02-28T09:06:28;3.40;99.90
51765;DHT22;37835;53.256;6.456;2023-02-28T09:08:56;3.40;99.90
51765;DHT22;37835;53.256;6.456;2023-02-28T09:11:23;3.50;99.90
51765;DHT22;37835;53.256;6.456;2023-02-28T09:13:49;3.50;99.90
51765;DHT22;37835;53.256;6.456;2023-02-28T09:16:15;3.50;99.90
51765;DHT22;37835;53.256;6.456;2023-02-28T09:18:42;3.50;99.90
51765;DHT22;37835;53.256;6.456;2023-02-28T09:21:12;3.80;99.90
51765;DHT22;37835;53.256;6.456;2023-02-28T09:23:40;3.50;99.90
51765;DHT22;37835;53.256;6.456;2023-02-28T09:26:06;3.60;99.90
51765;DHT22;37835;53.256;6.456;2023-02-28T09:28:32;3.70;99.90
51765;DHT22;37835;53.256;6.456;2023-02-28T09:30:58;3.70;99.90
51765;DHT22;37835;53.256;6.456;2023-02-28T09:33:25;3.70;99.90
51765;DHT22;37835;53.256;6.456;2023-02-28T09:35:53;4.00;99.90
51765;DHT22;37835;53.256;6.456;2023-02-28T09:38:22;3.10;99.90
51765;DHT22;37835;53.256;6.456;2023-02-28T09:41:00;3.90;99.90
51765;DHT22;37835;53.256;6.456;2023-02-28T09:43:30;3.90;99.90
51765;DHT22;37835;53.256;6.456;2023-02-28T09:46:26;3.90;99.90
51765;DHT22;37835;53.256;6.456;2023-02-28T09:48:53;4.00;99.90
51765;DHT22;37835;53.256;6.456;2023-02-28T09:53:58;4.10;99.90
51765;DHT22;37835;53.256;6.456;2023-02-28T09:56:30;4.20;99.90
51765;DHT22;37835;53.256;6.456;2023-02-28T09:59:16;4.30;99.90
51765;DHT22;37835;53.256;6.456;2023-02-28T10:01:55;3.80;99.90
51765;DHT22;37835;53.256;6.456;2023-02-28T10:04:43;4.50;99.90
51765;DHT22;37835;53.256;6.456;2023-02-28T10:13:04;4.60;99.90
51765;DHT22;37835;53.256;6.456;2023-02-28T10:15:32;4.70;99.90
51765;DHT22;37835;53.256;6.456;2023-02-28T10:18:03;4.90;99.90
51765;DHT22;37835;53.256;6.456;2023-02-28T10:20:33;5.00;99.90
51765;DHT22;37835;53.256;6.456;2023-02-28T10:23:20;5.00;99.90
51765;DHT22;37835;53.256;6.456;2023-02-28T10:25:53;5.10;99.90
51765;DHT22;37835;53.256;6.456;2023-02-28T10:28:19;5.20;99.90
51765;DHT22;37835;53.256;6.456;2023-02-28T10:30:50;5.30;99.90
51765;DHT22;37835;53.256;6.456;2023-02-28T10:33:20;5.50;99.90
51765;DHT22;37835;53.256;6.456;2023-02-28T10:35:46;5.50;99.90
51765;DHT22;37835;53.256;6.456;2023-02-28T10:38:18;5.60;99.90
51765;DHT22;37835;53.256;6.456;2023-02-28T10:40:44;5.70;99.90
51765;DHT22;37835;53.256;6.456;2023-02-28T10:45:39;5.90;99.90
51765;DHT22;37835;53.256;6.456;2023-02-28T10:48:36;5.90;99.90
51765;DHT22;37835;53.256;6.456;2023-02-28T10:51:03;5.90;99.90
51765;DHT22;37835;53.256;6.456;2023-02-28T10:53:40;6.00;99.90
51765;DHT22;37835;53.256;6.456;2023-02-28T10:58:56;6.10;99.90
51765;DHT22;37835;53.256;6.456;2023-02-28T11:01:27;6.20;99.90
51765;DHT22;37835;53.256;6.456;2023-02-28T11:03:59;6.30;99.90
51765;DHT22;37835;53.256;6.456;2023-02-28T11:06:33;6.30;99.90
51765;DHT22;37835;53.256;6.456;2023-02-28T11:09:05;6.40;99.90
51765;DHT22;37835;53.256;6.456;2023-02-28T11:11:42;6.40;99.90
51765;DHT22;37835;53.256;6.456;2023-02-28T11:14:20;6.50;99.90
51765;DHT22;37835;53.256;6.456;2023-02-28T11:16:46;6.50;99.90
51765;DHT22;37835;53.256;6.456;2023-02-28T11:19:22;6.50;99.90
51765;DHT22;37835;53.256;6.456;2023-02-28T11:21:58;6.60;99.90
51765;DHT22;37835;53.256;6.456;2023-02-28T11:24:30;6.60;99.90
51765;DHT22;37835;53.256;6.456;2023-02-28T11:26:56;6.60;99.90
51765;DHT22;37835;53.256;6.456;2023-02-28T11:29:25;6.60;99.90
51765;DHT22;37835;53.256;6.456;2023-02-28T11:34:28;6.90;99.90
51765;DHT22;37835;53.256;6.456;2023-02-28T11:36:56;6.90;99.90
51765;DHT22;37835;53.256;6.456;2023-02-28T11:39:23;7.00;99.90
51765;DHT22;37835;53.256;6.456;2023-02-28T11:42:10;7.10;99.90
51765;DHT22;37835;53.256;6.456;2023-02-28T11:47:35;7.20;99.90
51765;DHT22;37835;53.256;6.456;2023-02-28T11:50:25;7.30;99.90
51765;DHT22;37835;53.256;6.456;2023-02-28T11:53:00;7.30;99.90
51765;DHT22;37835;53.256;6.456;2023-02-28T11:55:39;7.40;99.90
51765;DHT22;37835;53.256;6.456;2023-02-28T12:01:08;7.50;99.90
51765;DHT22;37835;53.256;6.456;2023-02-28T12:06:28;7.40;99.90
51765;DHT22;37835;53.256;6.456;2023-02-28T12:19:48;7.50;99.90
51765;DHT22;37835;53.256;6.456;2023-02-28T12:22:43;7.60;99.90
51765;DHT22;37835;53.256;6.456;2023-02-28T12:27:51;7.40;99.90
51765;DHT22;37835;53.256;6.456;2023-02-28T12:30:34;8.00;99.90
51765;DHT22;37835;53.256;6.456;2023-02-28T12:35:35;8.00;99.90
51765;DHT22;37835;53.256;6.456;2023-02-28T12:38:26;8.00;99.90
51765;DHT22;37835;53.256;6.456;2023-02-28T12:43:31;8.10;99.90
51765;DHT22;37835;53.256;6.456;2023-02-28T12:46:22;8.10;99.90
51765;DHT22;37835;53.256;6.456;2023-02-28T12:49:04;8.10;99.90
51765;DHT22;37835;53.256;6.456;2023-02-28T12:51:30;8.10;99.90
51765;DHT22;37835;53.256;6.456;2023-02-28T12:54:07;8.10;99.90
51765;DHT22;37835;53.256;6.456;2023-02-28T12:59:27;8.00;99.90
51765;DHT22;37835;53.256;6.456;2023-02-28T13:02:09;7.90;99.90
51765;DHT22;37835;53.256;6.456;2023-02-28T13:07:30;7.80;99.90
51765;DHT22;37835;53.256;6.456;2023-02-28T13:10:00;7.90;99.90
51765;DHT22;37835;53.256;6.456;2023-02-28T13:12:26;8.00;99.90
51765;DHT22;37835;53.256;6.456;2023-02-28T13:17:32;8.30;99.90
51765;DHT22;37835;53.256;6.456;2023-02-28T13:19:59;8.40;99.90
51765;DHT22;37835;53.256;6.456;2023-02-28T13:24:52;8.60;99.90
51765;DHT22;37835;53.256;6.456;2023-02-28T13:27:33;11.00;99.90
51765;DHT22;37835;53.256;6.456;2023-02-28T13:29:59;8.70;99.90
51765;DHT22;37835;53.256;6.456;2023-02-28T13:39:57;8.80;99.90
51765;DHT22;37835;53.256;6.456;2023-02-28T13:52:50;8.80;99.90
51765;DHT22;37835;53.256;6.456;2023-02-28T14:06:28;8.80;99.90
51765;DHT22;37835;53.256;6.456;2023-02-28T14:11:46;8.90;99.90
51765;DHT22;37835;53.256;6.456;2023-02-28T14:17:05;8.90;99.90
51765;DHT22;37835;53.256;6.456;2023-02-28T14:19:33;9.00;99.90
51765;DHT22;37835;53.256;6.456;2023-02-28T14:25:04;9.00;99.90
51765;DHT22;37835;53.256;6.456;2023-02-28T14:27:36;9.10;99.90
51765;DHT22;37835;53.256;6.456;2023-02-28T14:33:32;9.20;99.90
51765;DHT22;37835;53.256;6.456;2023-02-28T14:36:16;9.20;99.90
51765;DHT22;37835;53.256;6.456;2023-02-28T14:38:51;9.20;99.90
51765;DHT22;37835;53.256;6.456;2023-02-28T14:41:40;9.20;99.90
51765;DHT22;37835;53.256;6.456;2023-02-28T14:44:32;9.20;99.90
51765;DHT22;37835;53.256;6.456;2023-02-28T14:47:02;9.20;99.90
51765;DHT22;37835;53.256;6.456;2023-02-28T14:49:35;9.20;99.90
51765;DHT22;37835;53.256;6.456;2023-02-28T14:54:35;9.10;99.90
51765;DHT22;37835;53.256;6.456;2023-02-28T14:57:02;9.10;99.90
51765;DHT22;37835;53.256;6.456;2023-02-28T14:59:35;9.10;99.90
51765;DHT22;37835;53.256;6.456;2023-02-28T15:02:22;9.10;99.90
51765;DHT22;37835;53.256;6.456;2023-02-28T15:07:36;9.00;99.90
51765;DHT22;37835;53.256;6.456;2023-02-28T15:10:19;9.00;99.90
51765;DHT22;37835;53.256;6.456;2023-02-28T15:13:14;9.00;99.90
51765;DHT22;37835;53.256;6.456;2023-02-28T15:18:31;9.00;99.90
51765;DHT22;37835;53.256;6.456;2023-02-28T15:21:04;8.90;99.90
51765;DHT22;37835;53.256;6.456;2023-02-28T15:23:30;8.90;99.90
51765;DHT22;37835;53.256;6.456;2023-02-28T15:25:57;8.90;99.90
51765;DHT22;37835;53.256;6.456;2023-02-28T15:28:23;8.90;99.90
51765;DHT22;37835;53.256;6.456;2023-02-28T15:30:55;8.90;99.90
51765;DHT22;37835;53.256;6.456;2023-02-28T15:33:22;8.80;99.90
51765;DHT22;37835;53.256;6.456;2023-02-28T15:35:49;8.80;99.90
51765;DHT22;37835;53.256;6.456;2023-02-28T15:38:26;8.70;99.90
51765;DHT22;37835;53.256;6.456;2023-02-28T15:40:57;8.70;99.90
51765;DHT22;37835;53.256;6.456;2023-02-28T15:43:31;8.50;99.90
51765;DHT22;37835;53.256;6.456;2023-02-28T15:46:08;8.50;99.90
51765;DHT22;37835;53.256;6.456;2023-02-28T15:48:44;8.40;99.90
51765;DHT22;37835;53.256;6.456;2023-02-28T15:51:17;8.20;99.90
51765;DHT22;37835;53.256;6.456;2023-02-28T15:53:56;8.10;99.90
51765;DHT22;37835;53.256;6.456;2023-02-28T15:56:31;8.00;99.90
51765;DHT22;37835;53.256;6.456;2023-02-28T15:58:59;7.80;99.90
51765;DHT22;37835;53.256;6.456;2023-02-28T16:01:28;7.70;99.90
51765;DHT22;37835;53.256;6.456;2023-02-28T16:04:04;7.70;99.90
51765;DHT22;37835;53.256;6.456;2023-02-28T16:06:39;7.60;99.90
51765;DHT22;37835;53.256;6.456;2023-02-28T16:09:08;7.50;99.90
51765;DHT22;37835;53.256;6.456;2023-02-28T16:11:37;7.40;99.90
51765;DHT22;37835;53.256;6.456;2023-02-28T16:14:04;7.40;99.90
51765;DHT22;37835;53.256;6.456;2023-02-28T16:16:31;7.30;99.90
51765;DHT22;37835;53.256;6.456;2023-02-28T16:18:57;7.20;99.90
51765;DHT22;37835;53.256;6.456;2023-02-28T16:21:24;7.20;99.90
51765;DHT22;37835;53.256;6.456;2023-02-28T16:23:50;7.10;99.90
51765;DHT22;37835;53.256;6.456;2023-02-28T16:26:22;7.00;99.90
51765;DHT22;37835;53.256;6.456;2023-02-28T16:28:49;7.00;99.90
51765;DHT22;37835;53.256;6.456;2023-02-28T16:31:16;7.00;99.90
51765;DHT22;37835;53.256;6.456;2023-02-28T16:33:43;6.90;99.90
51765;DHT22;37835;53.256;6.456;2023-02-28T16:36:14;6.80;99.90
51765;DHT22;37835;53.256;6.456;2023-02-28T16:38:40;6.80;99.90
51765;DHT22;37835;53.256;6.456;2023-02-28T16:41:06;6.70;99.90
51765;DHT22;37835;53.256;6.456;2023-02-28T16:43:31;6.60;99.90
51765;DHT22;37835;53.256;6.456;2023-02-28T16:45:58;6.60;99.90
51765;DHT22;37835;53.256;6.456;2023-02-28T16:48:24;6.50;99.90
51765;DHT22;37835;53.256;6.456;2023-02-28T16:50:50;6.40;99.90
51765;DHT22;37835;53.256;6.456;2023-02-28T16:53:16;6.40;99.90
51765;DHT22;37835;53.256;6.456;2023-02-28T16:55:42;6.30;99.90
51765;DHT22;37835;53.256;6.456;2023-02-28T16:58:14;6.30;99.90
51765;DHT22;37835;53.256;6.456;2023-02-28T17:00:40;6.20;99.90
51765;DHT22;37835;53.256;6.456;2023-02-28T17:03:07;6.10;99.90
51765;DHT22;37835;53.256;6.456;2023-02-28T17:05:37;6.00;99.90
51765;DHT22;37835;53.256;6.456;2023-02-28T17:08:03;5.90;99.90
51765;DHT22;37835;53.256;6.456;2023-02-28T17:10:29;6.60;99.90
51765;DHT22;37835;53.256;6.456;2023-02-28T17:12:54;5.70;99.90
51765;DHT22;37835;53.256;6.456;2023-02-28T17:15:20;5.60;99.90
51765;DHT22;37835;53.256;6.456;2023-02-28T17:17:47;5.50;99.90
51765;DHT22;37835;53.256;6.456;2023-02-28T17:20:19;5.40;99.90
51765;DHT22;37835;53.256;6.456;2023-02-28T17:22:49;5.40;99.90
51765;DHT22;37835;53.256;6.456;2023-02-28T17:25:15;5.30;99.90
51765;DHT22;37835;53.256;6.456;2023-02-28T17:27:42;5.20;99.90
51765;DHT22;37835;53.256;6.456;2023-02-28T17:30:17;5.10;99.90
51765;DHT22;37835;53.256;6.456;2023-02-28T17:32:44;5.00;99.90
51765;DHT22;37835;53.256;6.456;2023-02-28T17:35:09;4.70;99.90
51765;DHT22;37835;53.256;6.456;2023-02-28T17:37:35;4.80;99.90
51765;DHT22;37835;53.256;6.456;2023-02-28T17:40:01;4.80;99.90
51765;DHT22;37835;53.256;6.456;2023-02-28T17:42:27;4.70;99.90
51765;DHT22;37835;53.256;6.456;2023-02-28T17:44:52;4.60;99.90
51765;DHT22;37835;53.256;6.456;2023-02-28T17:47:18;4.60;99.90
51765;DHT22;37835;53.256;6.456;2023-02-28T17:49:43;4.50;99.90
51765;DHT22;37835;53.256;6.456;2023-02-28T17:52:09;4.50;99.90
51765;DHT22;37835;53.256;6.456;2023-02-28T17:54:35;4.40;99.90
51765;DHT22;37835;53.256;6.456;2023-02-28T17:57:00;4.30;99.90
51765;DHT22;37835;53.256;6.456;2023-02-28T17:59:26;4.30;99.90
51765;DHT22;37835;53.256;6.456;2023-02-28T18:01:59;4.20;99.90
51765;DHT22;37835;53.256;6.456;2023-02-28T18:04:24;4.10;99.90
51765;DHT22;37835;53.256;6.456;2023-02-28T18:06:53;4.00;99.90
51765;DHT22;37835;53.256;6.456;2023-02-28T18:09:22;3.90;99.90
51765;DHT22;37835;53.256;6.456;2023-02-28T18:11:52;3.80;99.90
51765;DHT22;37835;53.256;6.456;2023-02-28T18:14:19;3.70;99.90
51765;DHT22;37835;53.256;6.456;2023-02-28T18:16:45;3.60;99.90